Smyrna, North Carolina
Current Conditions -  °F | °C
As of 1:43 AM on Wednesday 26 Nov 2014 (Local Time) from KMRH Reporting Station
Light Rain Light Rain  
Wind Chill: 62°   Ceiling: 11000
Heat Index: 62°   Visibility: 9mi
Dew Point: 62°   Wind: 8mph
Humidity: 100%   Direction: 90°E
Pressure: 29.9"   Gusts: NA
Location:  34.76°N, 76.53°W
Report Text: KMRH 260643Z AUTO 09007KT 9SM -RA SCT004 SCT008 BKN110 17/17 A2990 RMK AO2 P0003 T01670167 TSNO
Loading
Personal Weather Stations






























Interactive Weather Map New forecast layout! Learn more

10-Day Weather Forecast

Advertisements
Track Severe Weather on mobile